createdAt,value
2023-01-29T06:04:19.426Z,78.80
2023-01-29T06:09:22.882Z,79.30
2023-01-29T06:14:26.592Z,79.30
2023-01-29T06:19:31.618Z,79.10
2023-01-29T06:24:35.245Z,79.30
2023-01-29T06:29:38.830Z,79.40
2023-01-29T06:34:43.963Z,79.60
2023-01-29T06:39:47.639Z,79.80
2023-01-29T06:44:51.461Z,79.60
2023-01-29T06:49:56.479Z,79.60
2023-01-29T06:55:00.098Z,79.30
2023-01-29T07:00:03.844Z,79.00
2023-01-29T07:05:09.487Z,78.90
2023-01-29T07:10:13.301Z,79.30
2023-01-29T07:15:20.255Z,79.40
2023-01-29T07:20:25.801Z,79.60
2023-01-29T07:25:30.454Z,79.70
2023-01-29T07:30:37.379Z,79.60
2023-01-29T07:35:43.556Z,79.70
2023-01-29T07:40:47.442Z,80.00
2023-01-29T07:45:51.082Z,80.00
2023-01-29T07:50:58.485Z,79.70
2023-01-29T07:56:02.134Z,79.40
2023-01-29T08:01:08.460Z,79.50
2023-01-29T08:06:13.466Z,79.70
2023-01-29T08:11:17.170Z,79.90
2023-01-29T08:16:20.844Z,79.80
2023-01-29T08:21:26.091Z,80.20
2023-01-29T08:26:30.088Z,80.20
2023-01-29T08:31:33.945Z,79.90
2023-01-29T08:36:39.104Z,80.00
2023-01-29T08:41:42.747Z,80.20
2023-01-29T08:46:46.389Z,80.00
2023-01-29T08:51:51.677Z,79.90
2023-01-29T08:56:55.276Z,79.10
2023-01-29T09:01:58.973Z,78.80
2023-01-29T09:07:04.013Z,78.80
2023-01-29T09:12:08.186Z,78.70
2023-01-29T09:17:11.789Z,78.70
2023-01-29T09:22:16.843Z,78.70
2023-01-29T09:27:20.547Z,78.90
2023-01-29T09:32:52.084Z,79.20
2023-01-29T09:37:50.681Z,79.10
2023-01-29T09:42:59.309Z,79.10
2023-01-29T09:48:06.798Z,78.90
2023-01-29T09:53:19.565Z,78.70
2023-01-29T09:58:29.056Z,78.90
2023-01-29T10:03:55.939Z,78.50
2023-01-29T10:09:32.428Z,77.90
2023-01-29T10:14:44.819Z,77.60
2023-01-29T10:20:04.308Z,77.40
2023-01-29T10:25:12.692Z,77.50
2023-01-29T10:30:29.188Z,77.10
2023-01-29T10:35:35.615Z,77.00
2023-01-29T10:40:46.935Z,76.90
2023-01-29T10:46:05.272Z,76.90
2023-01-29T10:51:23.438Z,76.70
2023-01-29T10:56:41.524Z,76.40
2023-01-29T11:01:46.597Z,77.10
2023-01-29T11:06:51.206Z,76.80
2023-01-29T11:11:59.362Z,75.60
2023-01-29T11:17:05.102Z,76.10
2023-01-29T11:22:15.952Z,75.90
2023-01-29T11:27:26.043Z,76.40
2023-01-29T11:32:35.438Z,76.20
2023-01-29T11:37:40.366Z,76.10
2023-01-29T11:42:44.135Z,76.00
2023-01-29T11:47:51.637Z,75.70
2023-01-29T11:52:56.181Z,75.40
2023-01-29T11:58:06.548Z,75.60
2023-01-29T12:03:17.497Z,75.50
2023-01-29T12:08:22.946Z,76.10
2023-01-29T12:13:28.562Z,74.90
2023-01-29T12:18:38.170Z,75.40
2023-01-29T12:23:48.599Z,76.00
2023-01-29T12:28:57.247Z,75.60
2023-01-29T12:34:09.596Z,74.90
2023-01-29T12:39:16.623Z,74.90
2023-01-29T12:44:25.434Z,75.30
2023-01-29T12:49:34.867Z,73.90
2023-01-29T12:54:41.933Z,74.40
2023-01-29T12:59:50.710Z,74.50
2023-01-29T13:05:02.152Z,74.30
2023-01-29T13:10:11.774Z,74.20
2023-01-29T13:15:23.846Z,74.90
2023-01-29T13:20:32.222Z,74.60
2023-01-29T13:25:36.106Z,75.00
2023-01-29T13:30:40.140Z,75.30
2023-01-29T13:35:47.218Z,74.50
2023-01-29T13:40:52.006Z,74.50
2023-01-29T13:45:56.521Z,74.20
2023-01-29T13:51:03.684Z,74.90
2023-01-29T13:56:30.685Z,74.60
2023-01-29T14:02:06.481Z,74.30
2023-01-29T14:07:49.933Z,74.30
2023-01-29T14:12:54.399Z,74.90
2023-01-29T14:18:00.652Z,74.40
2023-01-29T14:23:06.594Z,74.30
2023-01-29T14:28:21.504Z,73.70
2023-01-29T14:33:28.562Z,73.70
2023-01-29T14:38:35.252Z,74.10
2023-01-29T14:48:48.669Z,74.30
2023-01-29T14:54:00.514Z,74.90
2023-01-29T14:59:14.525Z,74.80
2023-01-29T15:04:23.637Z,74.40
2023-01-29T15:09:40.806Z,74.30
2023-01-29T15:14:53.404Z,75.20
2023-01-29T15:19:58.130Z,74.70
2023-01-29T15:25:08.370Z,74.60
2023-01-29T15:30:19.025Z,74.80
2023-01-29T15:35:29.969Z,74.40
2023-01-29T15:40:35.923Z,74.70
2023-01-29T15:45:42.426Z,75.10
2023-01-29T15:50:46.974Z,75.10
2023-01-29T15:55:53.799Z,75.10
2023-01-29T16:01:00.110Z,75.00
2023-01-29T16:11:12.325Z,75.00
2023-01-29T16:16:24.855Z,75.20
2023-01-29T16:21:33.048Z,75.30
2023-01-29T16:26:40.860Z,75.10
2023-01-29T16:31:46.718Z,75.20
2023-01-29T16:36:52.836Z,75.90
2023-01-29T16:42:23.463Z,75.30
2023-01-29T16:47:33.455Z,74.90
2023-01-29T16:52:37.394Z,74.90
2023-01-29T16:57:43.909Z,74.50
2023-01-29T17:02:47.626Z,83.90
2023-01-29T17:07:51.896Z,75.20
2023-01-29T17:13:00.320Z,75.20
2023-01-29T17:18:05.216Z,75.70
2023-01-29T17:23:08.880Z,76.00
2023-01-29T17:28:14.960Z,75.70
2023-01-29T17:33:21.819Z,75.80
2023-01-29T17:38:26.857Z,76.10
2023-01-29T17:43:31.949Z,75.80
2023-01-29T17:48:35.700Z,76.00
2023-01-29T17:53:47.487Z,76.20
2023-01-29T17:58:52.723Z,76.00
2023-01-29T18:09:00.325Z,75.90
2023-01-29T18:14:13.625Z,76.50
2023-01-29T18:19:22.074Z,76.50
2023-01-29T18:24:26.676Z,76.50
2023-01-29T18:29:31.854Z,91.40
2023-01-29T18:34:35.491Z,91.10
2023-01-29T18:39:39.199Z,91.50
2023-01-29T18:44:44.237Z,92.10
2023-01-29T18:49:47.992Z,91.60
2023-01-29T18:59:56.949Z,91.60
2023-01-29T19:05:00.689Z,91.30
2023-01-29T19:10:06.792Z,91.40
2023-01-29T19:15:13.180Z,91.10
2023-01-29T19:20:17.092Z,91.60
2023-01-29T19:25:21.035Z,92.80
2023-01-29T19:30:26.194Z,77.30
2023-01-29T19:35:29.809Z,91.80
2023-01-29T19:40:33.513Z,92.10
2023-01-29T19:45:50.395Z,91.90
2023-01-29T19:50:55.339Z,91.80
2023-01-29T19:56:00.221Z,77.60
2023-01-29T20:01:07.330Z,91.50
2023-01-29T20:06:11.373Z,77.50
2023-01-29T20:16:21.369Z,77.70
2023-01-29T20:31:34.997Z,91.20
2023-01-29T20:36:38.698Z,90.80
2023-01-29T20:41:42.592Z,93.90
2023-01-29T20:46:47.711Z,93.50
2023-01-29T21:02:01.701Z,92.10
2023-01-29T21:12:09.373Z,91.30
2023-01-29T21:17:14.637Z,79.20
2023-01-29T21:27:22.223Z,78.70
2023-01-29T21:32:28.109Z,79.30
2023-01-29T21:37:35.162Z,79.30
2023-01-29T21:42:56.432Z,78.90
2023-01-29T21:48:01.597Z,78.90
2023-01-29T21:53:05.247Z,79.10
2023-01-29T22:03:14.252Z,79.10
2023-01-29T22:08:18.614Z,79.40
2023-01-29T22:13:22.094Z,79.80
2023-01-29T22:18:27.303Z,79.40
2023-01-29T22:23:31.716Z,79.40
2023-01-29T22:28:35.483Z,79.30
2023-01-29T22:33:40.505Z,79.40
2023-01-29T22:38:44.214Z,79.50
2023-01-29T22:43:47.815Z,79.80
2023-01-29T22:48:52.967Z,80.10
2023-01-29T22:53:57.840Z,80.20
2023-01-29T22:59:02.491Z,80.30
2023-01-29T23:04:07.551Z,80.30
2023-01-29T23:09:11.197Z,80.40
2023-01-29T23:14:14.971Z,80.20
2023-01-29T23:19:20.184Z,80.10
2023-01-29T23:24:24.034Z,79.90
2023-01-29T23:29:28.068Z,79.80
